Time,TemperatureF,DewpointF,PressureIn,WindDirection,WindDirectionDegrees,WindSpeedMPH,WindSpeedGustMPH,Humidity,HourlyPrecipIn,Conditions,Clouds,dailyrainin,SoftwareType,DateUTC
2013-06-29 00:03:00,58.6,53.2,29.81,NNE,16,0.0,0.0,82,0.00,,---,0.00,VWS V13.01,2013-06-29 05:03:00,
2013-06-29 00:08:00,58.6,53.2,29.81,NNE,16,0.0,0.0,82,0.00,,---,0.00,VWS V13.01,2013-06-29 05:08:00,
2013-06-29 00:13:00,58.6,53.2,29.81,NNE,16,0.0,0.0,82,0.00,,---,0.00,VWS V13.01,2013-06-29 05:13:00,
2013-06-29 00:18:00,58.8,53.3,29.81,NNE,16,0.0,0.0,82,0.00,,---,0.00,VWS V13.01,2013-06-29 05:18:00,
2013-06-29 00:24:00,58.8,53.3,29.81,NNE,16,0.0,0.0,82,0.00,,---,0.00,VWS V13.01,2013-06-29 05:24:00,
2013-06-29 00:29:00,58.8,53.3,29.81,NNE,16,0.0,0.0,82,0.00,,---,0.00,VWS V13.01,2013-06-29 05:29:00,
2013-06-29 00:34:00,58.6,53.2,29.81,NNE,16,0.0,0.0,82,0.00,,---,0.00,VWS V13.01,2013-06-29 05:34:00,
2013-06-29 00:39:00,58.6,53.5,29.81,NNE,16,0.0,0.0,83,0.00,,---,0.00,VWS V13.01,2013-06-29 05:39:00,
2013-06-29 00:44:00,58.6,53.5,29.81,NNE,16,0.0,0.0,83,0.00,,---,0.00,VWS V13.01,2013-06-29 05:44:00,
2013-06-29 00:49:00,58.5,53.3,29.81,NNE,16,0.0,0.0,83,0.00,,---,0.00,VWS V13.01,2013-06-29 05:49:00,
2013-06-29 00:54:00,58.5,53.3,29.81,NNE,16,3.1,3.1,83,0.00,,---,0.00,VWS V13.01,2013-06-29 05:54:00,
2013-06-29 00:59:00,58.5,53.3,29.81,NNE,16,2.7,2.7,83,0.00,,---,0.00,VWS V13.01,2013-06-29 05:59:00,
2013-06-29 01:04:00,58.5,53.3,29.81,NNE,16,2.7,3.6,83,0.00,,---,0.00,VWS V13.01,2013-06-29 06:04:00,
2013-06-29 01:09:00,58.5,53.3,29.81,NNE,16,3.6,4.0,83,0.00,,---,0.00,VWS V13.01,2013-06-29 06:09:00,
2013-06-29 01:15:00,58.5,53.7,29.81,NNE,16,3.1,3.6,84,0.00,,---,0.00,VWS V13.01,2013-06-29 06:15:00,
2013-06-29 01:20:00,58.5,53.7,29.81,NNE,16,0.0,0.0,84,0.00,,---,0.00,VWS V13.01,2013-06-29 06:20:00,
2013-06-29 01:25:00,58.5,53.7,29.81,NNE,16,2.7,3.6,84,0.00,,---,0.00,VWS V13.01,2013-06-29 06:25:00,
2013-06-29 01:30:00,58.5,53.7,29.81,NNE,16,3.6,4.7,84,0.00,,---,0.00,VWS V13.01,2013-06-29 06:30:00,
2013-06-29 01:35:00,58.6,53.8,29.81,NNE,16,2.7,4.5,84,0.00,,---,0.00,VWS V13.01,2013-06-29 06:35:00,
2013-06-29 01:40:00,58.6,53.8,29.81,NNE,16,3.1,3.6,84,0.00,,---,0.00,VWS V13.01,2013-06-29 06:40:00,
2013-06-29 01:45:00,58.6,54.2,29.81,NNE,16,0.0,0.0,85,0.00,,---,0.00,VWS V13.01,2013-06-29 06:45:00,
2013-06-29 01:50:00,58.8,54.3,29.81,NNE,16,0.0,0.0,85,0.00,,---,0.00,VWS V13.01,2013-06-29 06:50:00,
2013-06-29 01:55:00,58.8,54.3,29.81,NNE,16,3.6,3.6,85,0.00,,---,0.00,VWS V13.01,2013-06-29 06:55:00,
2013-06-29 02:00:00,59.0,54.5,29.81,NNE,16,0.0,0.0,85,0.00,,---,0.00,VWS V13.01,2013-06-29 07:00:00,
2013-06-29 02:06:00,59.0,54.8,29.81,NNE,16,0.0,0.0,86,0.00,,---,0.00,VWS V13.01,2013-06-29 07:06:00,
2013-06-29 02:11:00,59.0,54.8,29.81,NNE,16,0.0,0.0,86,0.00,,---,0.00,VWS V13.01,2013-06-29 07:11:00,
2013-06-29 02:16:00,59.2,55.0,29.81,NNE,16,0.0,0.0,86,0.00,,---,0.00,VWS V13.01,2013-06-29 07:16:00,
2013-06-29 02:21:00,59.2,55.0,29.81,NNE,16,0.0,0.0,86,0.00,,---,0.00,VWS V13.01,2013-06-29 07:21:00,
2013-06-29 02:26:00,59.2,55.3,29.81,NNE,16,0.0,0.0,87,0.00,,---,0.00,VWS V13.01,2013-06-29 07:26:00,
2013-06-29 02:31:00,59.2,55.3,29.81,NNE,16,0.0,0.0,87,0.00,,---,0.00,VWS V13.01,2013-06-29 07:31:00,
2013-06-29 02:36:00,59.2,55.3,29.81,NNE,16,0.0,0.0,87,0.00,,---,0.00,VWS V13.01,2013-06-29 07:36:00,
2013-06-29 02:41:00,59.4,55.5,29.81,NNE,16,0.0,0.0,87,0.00,,---,0.00,VWS V13.01,2013-06-29 07:41:00,
2013-06-29 02:46:00,59.4,55.5,29.81,NNE,16,0.0,0.0,87,0.00,,---,0.00,VWS V13.01,2013-06-29 07:46:00,
2013-06-29 02:52:00,59.5,56.0,29.81,NNE,16,4.0,4.0,88,0.00,,---,0.00,VWS V13.01,2013-06-29 07:52:00,
2013-06-29 02:57:00,59.5,56.0,29.81,NNE,16,0.0,0.0,88,0.00,,---,0.00,VWS V13.01,2013-06-29 07:57:00,
2013-06-29 03:02:00,59.7,56.2,29.81,NNE,16,0.0,0.0,88,0.00,,---,0.00,VWS V13.01,2013-06-29 08:02:00,
2013-06-29 03:07:00,59.7,56.2,29.81,NNE,16,0.0,0.0,88,0.00,,---,0.00,VWS V13.01,2013-06-29 08:07:00,
2013-06-29 03:12:00,59.9,56.3,29.81,NNE,16,0.0,0.0,88,0.00,,---,0.00,VWS V13.01,2013-06-29 08:12:00,
2013-06-29 03:17:00,59.9,56.3,29.81,NNE,16,0.0,0.0,88,0.00,,---,0.00,VWS V13.01,2013-06-29 08:17:00,
2013-06-29 03:22:00,59.9,56.3,29.81,NNE,16,2.7,3.6,88,0.00,,---,0.00,VWS V13.01,2013-06-29 08:22:00,
2013-06-29 03:27:00,59.9,56.3,29.81,NNE,16,2.7,2.7,88,0.00,,---,0.00,VWS V13.01,2013-06-29 08:27:00,
2013-06-29 03:32:00,59.9,56.3,29.81,NNE,16,2.7,3.1,88,0.00,,---,0.00,VWS V13.01,2013-06-29 08:32:00,
2013-06-29 03:37:00,59.9,56.3,29.81,NNE,16,2.7,2.7,88,0.00,,---,0.00,VWS V13.01,2013-06-29 08:37:00,
2013-06-29 03:42:00,59.9,56.3,29.81,NNE,16,0.0,0.0,88,0.00,,---,0.00,VWS V13.01,2013-06-29 08:42:00,
2013-06-29 03:48:00,59.7,56.2,29.81,NNE,16,0.0,0.0,88,0.00,,---,0.00,VWS V13.01,2013-06-29 08:48:00,
2013-06-29 03:53:00,59.7,55.8,29.81,NNE,16,0.0,0.0,87,0.00,,---,0.00,VWS V13.01,2013-06-29 08:53:00,
2013-06-29 03:58:00,59.7,55.8,29.84,NNE,16,0.0,0.0,87,0.00,,---,0.00,VWS V13.01,2013-06-29 08:58:00,
2013-06-29 04:03:00,59.7,55.8,29.84,NNE,16,0.0,0.0,87,0.00,,---,0.00,VWS V13.01,2013-06-29 09:03:00,
2013-06-29 04:08:00,59.7,55.8,29.84,NNE,16,3.6,4.0,87,0.00,,---,0.00,VWS V13.01,2013-06-29 09:08:00,
2013-06-29 04:13:00,59.5,55.3,29.84,NNE,16,0.0,0.0,86,0.00,,---,0.00,VWS V13.01,2013-06-29 09:13:00,
2013-06-29 04:18:00,59.5,55.0,29.84,NNE,16,0.0,0.0,85,0.00,,---,0.00,VWS V13.01,2013-06-29 09:18:00,
2013-06-29 04:23:00,59.4,54.5,29.84,NNE,16,0.0,0.0,84,0.00,,---,0.00,VWS V13.01,2013-06-29 09:23:00,
2013-06-29 04:28:00,59.2,54.0,29.84,NNE,16,0.0,0.0,83,0.00,,---,0.00,VWS V13.01,2013-06-29 09:28:00,
2013-06-29 04:34:00,59.2,53.7,29.84,NNE,16,0.0,0.0,82,0.00,,---,0.00,VWS V13.01,2013-06-29 09:34:00,
2013-06-29 04:39:00,59.0,53.2,29.84,NNE,16,0.0,0.0,81,0.00,,---,0.00,VWS V13.01,2013-06-29 09:39:00,
2013-06-29 04:44:00,58.8,53.0,29.84,NNE,16,0.0,0.0,81,0.00,,---,0.00,VWS V13.01,2013-06-29 09:44:00,
2013-06-29 04:49:00,58.8,52.7,29.84,NNE,16,0.0,0.0,80,0.00,,---,0.00,VWS V13.01,2013-06-29 09:49:00,
2013-06-29 04:54:00,58.6,52.2,29.84,NNE,16,0.0,0.0,79,0.00,,---,0.00,VWS V13.01,2013-06-29 09:54:00,
2013-06-29 04:59:00,58.6,52.2,29.84,NNE,16,0.0,0.0,79,0.00,,---,0.00,VWS V13.01,2013-06-29 09:59:00,
2013-06-29 05:04:00,58.5,52.0,29.84,NNE,16,0.0,0.0,79,0.00,,---,0.00,VWS V13.01,2013-06-29 10:04:00,
2013-06-29 05:09:00,58.5,52.0,29.84,NNE,16,0.0,0.0,79,0.00,,---,0.00,VWS V13.01,2013-06-29 10:09:00,
2013-06-29 05:14:00,58.3,51.5,29.84,NNE,16,0.0,0.0,78,0.00,,---,0.00,VWS V13.01,2013-06-29 10:14:00,
2013-06-29 05:19:00,58.3,51.5,29.84,NNE,16,0.0,0.0,78,0.00,,---,0.00,VWS V13.01,2013-06-29 10:19:00,
2013-06-29 05:24:00,58.1,51.3,29.84,NNE,16,0.0,0.0,78,0.00,,---,0.00,VWS V13.01,2013-06-29 10:24:00,
2013-06-29 05:29:00,58.1,51.3,29.84,NNE,16,0.0,0.0,78,0.00,,---,0.00,VWS V13.01,2013-06-29 10:29:00,
2013-06-29 05:34:00,57.9,50.8,29.84,NNE,16,0.0,0.0,77,0.00,,---,0.00,VWS V13.01,2013-06-29 10:34:00,
2013-06-29 05:40:00,57.9,50.8,29.84,NNE,16,0.0,0.0,77,0.00,,---,0.00,VWS V13.01,2013-06-29 10:40:00,
2013-06-29 05:45:00,57.7,50.6,29.84,NNE,16,0.0,0.0,77,0.00,,---,0.00,VWS V13.01,2013-06-29 10:45:00,
2013-06-29 05:50:00,57.6,50.4,29.84,NNE,16,0.0,0.0,77,0.00,,---,0.00,VWS V13.01,2013-06-29 10:50:00,
2013-06-29 05:55:00,57.6,50.8,29.84,NNE,16,0.0,0.0,78,0.00,,---,0.00,VWS V13.01,2013-06-29 10:55:00,
2013-06-29 06:00:00,57.6,50.8,29.84,NNE,16,0.0,0.0,78,0.00,,---,0.00,VWS V13.01,2013-06-29 11:00:00,
2013-06-29 06:05:00,57.7,50.9,29.84,NNE,16,0.0,0.0,78,0.00,,---,0.00,VWS V13.01,2013-06-29 11:05:00,
2013-06-29 06:10:00,57.7,50.9,29.84,NNE,16,0.0,0.0,78,0.00,,---,0.00,VWS V13.01,2013-06-29 11:10:00,
2013-06-29 06:15:00,57.9,51.5,29.84,NNE,16,0.0,0.0,79,0.00,,---,0.00,VWS V13.01,2013-06-29 11:15:00,
2013-06-29 06:20:00,57.9,51.5,29.84,NNE,16,0.0,0.0,79,0.00,,---,0.00,VWS V13.01,2013-06-29 11:20:00,
2013-06-29 06:25:00,58.1,51.6,29.84,NNE,16,0.0,0.0,79,0.00,,---,0.00,VWS V13.01,2013-06-29 11:25:00,
2013-06-29 06:30:00,58.1,51.6,29.87,NNE,16,0.0,0.0,79,0.00,,---,0.00,VWS V13.01,2013-06-29 11:30:00,
2013-06-29 06:35:00,58.1,51.6,29.87,NNE,16,0.0,0.0,79,0.00,,---,0.00,VWS V13.01,2013-06-29 11:35:00,
2013-06-29 06:40:00,58.3,51.8,29.87,NNE,16,0.0,0.0,79,0.00,,---,0.00,VWS V13.01,2013-06-29 11:40:00,
2013-06-29 06:45:00,58.3,51.5,29.87,NNE,16,0.0,0.0,78,0.00,,---,0.00,VWS V13.01,2013-06-29 11:45:00,
2013-06-29 06:50:00,58.5,51.6,29.87,NNE,16,0.0,0.0,78,0.00,,---,0.00,VWS V13.01,2013-06-29 11:50:00,
2013-06-29 06:55:00,58.5,51.6,29.87,NNE,16,0.0,0.0,78,0.00,,---,0.00,VWS V13.01,2013-06-29 11:55:00,
2013-06-29 07:00:00,58.6,51.8,29.87,NNE,16,0.0,0.0,78,0.00,,---,0.00,VWS V13.01,2013-06-29 12:00:00,
2013-06-29 07:05:00,58.8,52.0,29.87,NNE,16,0.0,0.0,78,0.00,,---,0.00,VWS V13.01,2013-06-29 12:05:00,
2013-06-29 07:10:00,59.0,51.8,29.87,NNE,16,0.0,0.0,77,0.00,,---,0.00,VWS V13.01,2013-06-29 12:10:00,
2013-06-29 07:15:00,59.2,52.0,29.87,NNE,16,0.0,0.0,77,0.00,,---,0.00,VWS V13.01,2013-06-29 12:15:00,
2013-06-29 07:20:00,59.2,50.9,29.87,NNE,16,3.6,4.0,74,0.00,,---,0.00,VWS V13.01,2013-06-29 12:20:00,
2013-06-29 07:25:00,59.4,50.7,29.87,NNE,16,0.0,0.0,73,0.00,,---,0.00,VWS V13.01,2013-06-29 12:25:00,
2013-06-29 07:30:00,59.5,50.5,29.87,NNE,16,0.0,0.0,72,0.00,,---,0.00,VWS V13.01,2013-06-29 12:30:00,
2013-06-29 07:35:00,59.7,50.3,29.87,NNE,16,0.0,0.0,71,0.00,,---,0.00,VWS V13.01,2013-06-29 12:35:00,
2013-06-29 07:40:00,59.7,49.9,29.87,NNE,16,0.0,0.0,70,0.00,,---,0.00,VWS V13.01,2013-06-29 12:40:00,
2013-06-29 07:45:00,59.9,49.7,29.87,NNE,16,0.0,0.0,69,0.00,,---,0.00,VWS V13.01,2013-06-29 12:45:00,
2013-06-29 07:50:00,60.1,49.9,29.87,NNE,16,0.0,0.0,69,0.00,,---,0.00,VWS V13.01,2013-06-29 12:50:00,
2013-06-29 07:55:00,60.3,50.1,29.87,NNE,16,0.0,0.0,69,0.00,,---,0.00,VWS V13.01,2013-06-29 12:55:00,
2013-06-29 08:00:00,60.4,49.8,29.87,NNE,16,0.0,0.0,68,0.00,,---,0.00,VWS V13.01,2013-06-29 13:00:00,
2013-06-29 08:05:00,60.6,49.6,29.87,NNE,16,0.0,0.0,67,0.00,,---,0.00,VWS V13.01,2013-06-29 13:05:00,
2013-06-29 08:10:00,60.8,49.4,29.87,NNE,16,0.0,0.0,66,0.00,,---,0.00,VWS V13.01,2013-06-29 13:10:00,
2013-06-29 08:15:00,61.0,48.7,29.87,NNE,16,0.0,0.0,64,0.00,,---,0.00,VWS V13.01,2013-06-29 13:15:00,
2013-06-29 08:20:00,61.2,48.5,29.87,NNE,16,0.0,0.0,63,0.00,,---,0.00,VWS V13.01,2013-06-29 13:20:00,
2013-06-29 08:25:00,61.3,48.2,29.87,NNE,16,0.0,0.0,62,0.00,,---,0.00,VWS V13.01,2013-06-29 13:25:00,
2013-06-29 08:30:00,61.5,48.4,29.90,NNE,16,0.0,0.0,62,0.00,,---,0.00,VWS V13.01,2013-06-29 13:30:00,
2013-06-29 08:35:00,61.5,48.0,29.90,NNE,16,0.0,0.0,61,0.00,,---,0.00,VWS V13.01,2013-06-29 13:35:00,
2013-06-29 08:40:00,61.7,48.1,29.90,NNE,16,0.0,0.0,61,0.00,,---,0.00,VWS V13.01,2013-06-29 13:40:00,
2013-06-29 08:45:00,61.9,48.3,29.90,NNE,16,0.0,0.0,61,0.00,,---,0.00,VWS V13.01,2013-06-29 13:45:00,
2013-06-29 08:50:00,61.9,48.3,29.90,NNE,16,0.0,0.0,61,0.00,,---,0.00,VWS V13.01,2013-06-29 13:50:00,
2013-06-29 08:55:00,62.2,48.2,29.90,NNE,16,0.0,0.0,60,0.00,,---,0.00,VWS V13.01,2013-06-29 13:55:00,
2013-06-29 09:00:00,62.4,48.8,29.90,NNE,16,0.0,0.0,61,0.00,,---,0.00,VWS V13.01,2013-06-29 14:00:00,
2013-06-29 09:05:00,62.6,48.5,29.90,NNE,16,0.0,0.0,60,0.00,,---,0.00,VWS V13.01,2013-06-29 14:05:00,
2013-06-29 09:10:00,63.0,49.3,29.90,NNE,16,3.1,4.5,61,0.00,,---,0.00,VWS V13.01,2013-06-29 14:10:00,
2013-06-29 09:15:00,63.1,48.6,29.90,NE,43,0.0,4.0,59,0.00,,---,0.00,VWS V13.01,2013-06-29 14:15:00,
2013-06-29 09:20:00,63.5,48.5,29.90,East,96,0.0,0.0,58,0.00,,---,0.00,VWS V13.01,2013-06-29 14:20:00,
2013-06-29 09:25:00,64.0,49.0,29.90,NE,43,0.0,0.0,58,0.00,,---,0.00,VWS V13.01,2013-06-29 14:25:00,
2013-06-29 09:30:00,64.4,48.8,29.90,ESE,115,0.0,0.0,57,0.00,,---,0.00,VWS V13.01,2013-06-29 14:30:00,
2013-06-29 09:35:00,64.8,48.7,29.90,ENE,58,2.7,5.1,56,0.00,,---,0.00,VWS V13.01,2013-06-29 14:35:00,
2013-06-29 09:40:00,64.6,47.6,29.90,East,97,0.0,0.0,54,0.00,,---,0.00,VWS V13.01,2013-06-29 14:40:00,
2013-06-29 09:45:00,64.4,47.9,29.90,NE,49,0.0,0.0,55,0.00,,---,0.00,VWS V13.01,2013-06-29 14:45:00,
2013-06-29 09:50:00,64.2,45.7,29.90,NNE,27,4.0,4.0,51,0.00,,---,0.00,VWS V13.01,2013-06-29 14:50:00,
2013-06-29 09:55:00,63.7,43.6,29.90,East,81,0.0,2.7,48,0.00,,---,0.00,VWS V13.01,2013-06-29 14:55:00,
2013-06-29 10:00:00,63.1,43.7,29.90,ESE,104,3.1,3.1,49,0.00,,---,0.00,VWS V13.01,2013-06-29 15:00:00,
2013-06-29 10:06:00,63.1,44.7,29.90,ENE,71,0.0,3.1,51,0.00,,---,0.00,VWS V13.01,2013-06-29 15:06:00,
2013-06-29 10:11:00,63.5,44.5,29.90,NE,39,0.0,2.7,50,0.00,,---,0.00,VWS V13.01,2013-06-29 15:11:00,
2013-06-29 10:16:00,64.0,44.0,29.90,NE,43,0.0,4.5,48,0.00,,---,0.00,VWS V13.01,2013-06-29 15:16:00,
2013-06-29 10:21:00,64.6,44.5,29.90,NE,47,0.0,2.7,48,0.00,,---,0.00,VWS V13.01,2013-06-29 15:21:00,
2013-06-29 10:26:00,64.8,44.1,29.90,ESE,106,0.0,2.7,47,0.00,,---,0.00,VWS V13.01,2013-06-29 15:26:00,
2013-06-29 10:31:00,64.8,43.5,29.93,NNE,24,0.0,3.1,46,0.00,,---,0.00,VWS V13.01,2013-06-29 15:31:00,
2013-06-29 10:36:00,64.4,43.2,29.93,East,97,0.0,0.0,46,0.00,,---,0.00,VWS V13.01,2013-06-29 15:36:00,
2013-06-29 10:41:00,64.0,42.9,29.93,NE,37,3.1,3.1,46,0.00,,---,0.00,VWS V13.01,2013-06-29 15:41:00,
2013-06-29 10:46:00,63.9,43.3,29.93,NE,56,0.0,0.0,47,0.00,,---,0.00,VWS V13.01,2013-06-29 15:46:00,
2013-06-29 10:51:00,63.9,44.9,29.93,NE,54,0.0,0.0,50,0.00,,---,0.00,VWS V13.01,2013-06-29 15:51:00,
2013-06-29 10:57:00,63.9,45.4,29.93,ESE,106,0.0,0.0,51,0.00,,---,0.00,VWS V13.01,2013-06-29 15:57:00,
2013-06-29 11:02:00,63.9,42.7,29.93,ENE,58,0.0,4.7,46,0.00,,---,0.00,VWS V13.01,2013-06-29 16:02:00,
2013-06-29 11:07:00,63.9,42.1,29.93,NE,54,0.0,3.6,45,0.00,,---,0.00,VWS V13.01,2013-06-29 16:07:00,
2013-06-29 11:12:00,63.9,43.3,29.93,SSE,149,0.0,0.0,47,0.00,,---,0.00,VWS V13.01,2013-06-29 16:12:00,
2013-06-29 11:17:00,63.7,43.6,29.93,ENE,77,2.7,2.7,48,0.00,,---,0.00,VWS V13.01,2013-06-29 16:17:00,
2013-06-29 11:22:00,63.5,44.0,29.93,East,87,0.0,0.0,49,0.00,,---,0.00,VWS V13.01,2013-06-29 16:22:00,
2013-06-29 11:27:00,63.7,44.2,29.93,South,171,0.0,0.0,49,0.00,,---,0.00,VWS V13.01,2013-06-29 16:27:00,
2013-06-29 11:32:00,63.7,44.2,29.93,East,96,4.0,4.0,49,0.00,,---,0.00,VWS V13.01,2013-06-29 16:32:00,
2013-06-29 11:37:00,63.7,43.6,29.93,ENE,75,0.0,0.0,48,0.00,,---,0.00,VWS V13.01,2013-06-29 16:37:00,
2013-06-29 11:42:00,63.7,45.2,29.93,ENE,58,2.7,3.6,51,0.00,,---,0.00,VWS V13.01,2013-06-29 16:42:00,
2013-06-29 11:47:00,63.9,42.7,29.93,NE,35,0.0,0.0,46,0.00,,---,0.00,VWS V13.01,2013-06-29 16:47:00,
2013-06-29 11:52:00,64.0,41.7,29.93,ENE,60,3.6,5.1,44,0.00,,---,0.00,VWS V13.01,2013-06-29 16:52:00,
2013-06-29 11:57:00,64.0,41.7,29.93,NNE,24,2.7,4.5,44,0.00,,---,0.00,VWS V13.01,2013-06-29 16:57:00,
2013-06-29 12:02:00,64.0,42.9,29.93,NE,52,0.0,0.0,46,0.00,,---,0.00,VWS V13.01,2013-06-29 17:02:00,
2013-06-29 12:07:00,64.2,43.0,29.93,East,96,0.0,0.0,46,0.00,,---,0.00,VWS V13.01,2013-06-29 17:07:00,
2013-06-29 12:12:00,64.4,42.0,29.96,NE,48,4.5,5.1,44,0.00,,---,0.00,VWS V13.01,2013-06-29 17:12:00,
2013-06-29 12:17:00,64.4,42.0,29.96,NE,43,0.0,0.0,44,0.00,,---,0.00,VWS V13.01,2013-06-29 17:17:00,
2013-06-29 12:22:00,64.6,42.2,29.96,NNW,345,0.0,0.0,44,0.00,,---,0.00,VWS V13.01,2013-06-29 17:22:00,
2013-06-29 12:27:00,64.8,42.4,29.96,NE,44,3.1,4.7,44,0.00,,---,0.00,VWS V13.01,2013-06-29 17:27:00,
2013-06-29 12:32:00,64.9,41.3,29.96,NNE,15,0.0,0.0,42,0.00,,---,0.00,VWS V13.01,2013-06-29 17:32:00,
2013-06-29 12:37:00,65.1,42.1,29.96,NE,47,3.6,4.7,43,0.00,,---,0.00,VWS V13.01,2013-06-29 17:37:00,
2013-06-29 12:42:00,65.1,40.9,29.96,NNE,31,2.7,4.7,41,0.00,,---,0.00,VWS V13.01,2013-06-29 17:42:00,
2013-06-29 12:47:00,64.9,41.3,29.96,ENE,76,2.7,3.1,42,0.00,,---,0.00,VWS V13.01,2013-06-29 17:47:00,
2013-06-29 12:52:00,65.1,40.9,29.96,NNE,20,0.0,0.0,41,0.00,,---,0.00,VWS V13.01,2013-06-29 17:52:00,
2013-06-29 12:58:00,65.3,41.0,29.96,ESE,102,3.6,3.6,41,0.00,,---,0.00,VWS V13.01,2013-06-29 17:58:00,
2013-06-29 13:03:00,65.3,42.2,29.96,SE,141,0.0,0.0,43,0.00,,---,0.00,VWS V13.01,2013-06-29 18:03:00,
2013-06-29 13:07:00,65.5,43.0,29.96,WSW,244,0.0,0.0,44,0.00,,---,0.00,VWS V13.01,2013-06-29 18:07:00,
2013-06-29 13:13:00,65.8,43.3,29.96,South,177,0.0,0.0,44,0.00,,---,0.00,VWS V13.01,2013-06-29 18:13:00,
2013-06-29 13:18:00,65.8,40.9,29.96,ENE,67,0.0,0.0,40,0.00,,---,0.00,VWS V13.01,2013-06-29 18:18:00,
2013-06-29 13:23:00,65.8,42.1,29.96,West,261,0.0,0.0,42,0.00,,---,0.00,VWS V13.01,2013-06-29 18:23:00,
2013-06-29 13:28:00,66.2,42.5,29.96,ENE,72,0.0,0.0,42,0.00,,---,0.00,VWS V13.01,2013-06-29 18:28:00,
2013-06-29 13:33:00,66.6,42.2,29.96,ENE,63,3.1,3.1,41,0.00,,---,0.00,VWS V13.01,2013-06-29 18:33:00,
2013-06-29 13:38:00,66.7,42.3,29.96,East,97,2.7,3.6,41,0.00,,---,0.00,VWS V13.01,2013-06-29 18:38:00,
2013-06-29 13:43:00,66.7,40.3,29.96,NE,49,3.6,3.6,38,0.00,,---,0.00,VWS V13.01,2013-06-29 18:43:00,
2013-06-29 13:48:00,66.9,39.8,29.96,NE,36,4.0,4.0,37,0.00,,---,0.00,VWS V13.01,2013-06-29 18:48:00,
2013-06-29 13:53:00,66.9,38.4,29.96,SSE,168,0.0,0.0,35,0.00,,---,0.00,VWS V13.01,2013-06-29 18:53:00,
2013-06-29 13:58:00,66.7,39.7,29.96,NE,35,4.7,4.7,37,0.00,,---,0.00,VWS V13.01,2013-06-29 18:58:00,
2013-06-29 14:03:00,66.9,39.1,29.96,NNE,12,2.7,2.7,36,0.00,,---,0.00,VWS V13.01,2013-06-29 19:03:00,
2013-06-29 14:08:00,66.9,38.4,29.96,ENE,59,4.0,4.0,35,0.00,,---,0.00,VWS V13.01,2013-06-29 19:08:00,
2013-06-29 14:13:00,67.1,38.6,29.96,NNE,15,0.0,3.1,35,0.00,,---,0.00,VWS V13.01,2013-06-29 19:13:00,
2013-06-29 14:18:00,67.5,38.9,29.96,NE,55,5.6,5.6,35,0.00,,---,0.00,VWS V13.01,2013-06-29 19:18:00,
2013-06-29 14:23:00,67.6,39.0,29.96,East,84,3.6,4.0,35,0.00,,---,0.00,VWS V13.01,2013-06-29 19:23:00,
2013-06-29 14:28:00,67.8,39.2,29.96,East,82,0.0,0.0,35,0.00,,---,0.00,VWS V13.01,2013-06-29 19:28:00,
2013-06-29 14:33:00,67.8,38.5,29.96,NE,34,2.7,3.6,34,0.00,,---,0.00,VWS V13.01,2013-06-29 19:33:00,
2013-06-29 14:38:00,67.8,39.2,29.96,SSW,201,0.0,2.7,35,0.00,,---,0.00,VWS V13.01,2013-06-29 19:38:00,
2013-06-29 14:43:00,68.0,38.6,29.96,NE,37,4.5,5.6,34,0.00,,---,0.00,VWS V13.01,2013-06-29 19:43:00,
2013-06-29 14:48:00,68.2,38.8,29.96,East,91,0.0,4.5,34,0.00,,---,0.00,VWS V13.01,2013-06-29 19:48:00,
2013-06-29 14:53:00,68.5,39.1,29.96,NE,54,3.6,4.5,34,0.00,,---,0.00,VWS V13.01,2013-06-29 19:53:00,
2013-06-29 14:58:00,68.9,39.4,29.96,ESE,103,4.0,4.7,34,0.00,,---,0.00,VWS V13.01,2013-06-29 19:58:00,
2013-06-29 15:03:00,69.3,39.0,29.96,NNE,12,6.0,6.0,33,0.00,,---,0.00,VWS V13.01,2013-06-29 20:03:00,
2013-06-29 15:08:00,69.4,38.3,29.96,NE,43,4.7,4.7,32,0.00,,---,0.00,VWS V13.01,2013-06-29 20:08:00,
2013-06-29 15:13:00,69.6,38.5,29.96,NE,47,5.6,5.6,32,0.00,,---,0.00,VWS V13.01,2013-06-29 20:13:00,
2013-06-29 15:19:00,69.6,38.5,29.96,ENE,60,5.1,5.1,32,0.00,,---,0.00,VWS V13.01,2013-06-29 20:19:00,
2013-06-29 15:24:00,69.6,36.8,29.96,ENE,67,6.0,6.0,30,0.00,,---,0.00,VWS V13.01,2013-06-29 20:24:00,
2013-06-29 15:29:00,69.4,35.8,29.96,NE,44,6.5,6.5,29,0.00,,---,0.00,VWS V13.01,2013-06-29 20:29:00,
2013-06-29 15:34:00,69.1,36.4,29.96,North,8,6.9,6.9,30,0.00,,---,0.00,VWS V13.01,2013-06-29 20:34:00,
2013-06-29 15:39:00,68.9,35.4,29.96,ESE,123,3.6,4.7,29,0.00,,---,0.00,VWS V13.01,2013-06-29 20:39:00,
2013-06-29 15:44:00,68.9,34.5,29.96,NNE,19,3.6,7.4,28,0.00,,---,0.00,VWS V13.01,2013-06-29 20:44:00,
2013-06-29 15:49:00,68.9,34.5,29.96,ENE,77,4.0,5.6,28,0.00,,---,0.00,VWS V13.01,2013-06-29 20:49:00,
2013-06-29 15:54:00,68.9,35.4,29.96,East,86,2.7,4.0,29,0.00,,---,0.00,VWS V13.01,2013-06-29 20:54:00,
2013-06-29 15:59:00,68.9,36.2,29.96,ENE,61,3.6,5.1,30,0.00,,---,0.00,VWS V13.01,2013-06-29 20:59:00,
2013-06-29 16:04:00,68.9,35.4,29.96,East,96,3.6,5.6,29,0.00,,---,0.00,VWS V13.01,2013-06-29 21:04:00,
2013-06-29 16:09:00,68.9,35.4,29.96,NE,46,4.5,4.7,29,0.00,,---,0.00,VWS V13.01,2013-06-29 21:09:00,
2013-06-29 16:14:00,68.7,35.2,29.96,NE,43,4.7,5.1,29,0.00,,---,0.00,VWS V13.01,2013-06-29 21:14:00,
2013-06-29 16:19:00,68.5,35.9,29.96,ENE,66,5.6,5.6,30,0.00,,---,0.00,VWS V13.01,2013-06-29 21:19:00,
2013-06-29 16:24:00,68.4,34.9,29.96,ENE,71,3.6,3.6,29,0.00,,---,0.00,VWS V13.01,2013-06-29 21:24:00,
2013-06-29 16:29:00,68.2,35.6,29.96,NNE,20,4.5,5.1,30,0.00,,---,0.00,VWS V13.01,2013-06-29 21:29:00,
2013-06-29 16:34:00,68.2,36.4,29.96,North,8,4.5,4.7,31,0.00,,---,0.00,VWS V13.01,2013-06-29 21:34:00,
2013-06-29 16:39:00,68.4,37.4,29.96,East,79,4.0,4.0,32,0.00,,---,0.00,VWS V13.01,2013-06-29 21:39:00,
2013-06-29 16:44:00,68.4,36.6,29.98,NNE,24,5.6,5.6,31,0.00,,---,0.00,VWS V13.01,2013-06-29 21:44:00,
2013-06-29 16:49:00,68.2,35.6,29.98,NNE,33,3.6,5.6,30,0.00,,---,0.00,VWS V13.01,2013-06-29 21:49:00,
2013-06-29 16:54:00,68.0,36.3,29.98,North,5,3.1,4.0,31,0.00,,---,0.00,VWS V13.01,2013-06-29 21:54:00,
2013-06-29 16:59:00,67.8,35.3,29.98,ENE,57,4.0,4.0,30,0.00,,---,0.00,VWS V13.01,2013-06-29 21:59:00,
2013-06-29 17:04:00,67.6,35.1,29.98,ESE,122,2.7,4.5,30,0.00,,---,0.00,VWS V13.01,2013-06-29 22:04:00,
2013-06-29 17:09:00,67.5,35.0,29.98,ENE,62,5.1,5.1,30,0.00,,---,0.00,VWS V13.01,2013-06-29 22:09:00,
2013-06-29 17:14:00,67.3,35.6,29.98,North,357,3.1,3.1,31,0.00,,---,0.00,VWS V13.01,2013-06-29 22:14:00,
2013-06-29 17:19:00,67.3,36.4,29.98,North,5,3.1,3.1,32,0.00,,---,0.00,VWS V13.01,2013-06-29 22:19:00,
2013-06-29 17:24:00,67.3,35.6,29.98,NE,38,4.0,4.7,31,0.00,,---,0.00,VWS V13.01,2013-06-29 22:24:00,
2013-06-29 17:29:00,67.1,35.5,29.98,NE,35,4.0,4.5,31,0.00,,---,0.00,VWS V13.01,2013-06-29 22:29:00,
2013-06-29 17:34:00,67.1,36.3,29.98,NE,37,5.1,5.1,32,0.00,,---,0.00,VWS V13.01,2013-06-29 22:34:00,
2013-06-29 17:40:00,66.9,36.1,29.98,East,92,0.0,0.0,32,0.00,,---,0.00,VWS V13.01,2013-06-29 22:40:00,
2013-06-29 17:45:00,66.7,35.2,29.98,NE,34,4.7,4.7,31,0.00,,---,0.00,VWS V13.01,2013-06-29 22:45:00,
2013-06-29 17:50:00,66.6,35.0,29.98,NE,50,0.0,4.0,31,0.00,,---,0.00,VWS V13.01,2013-06-29 22:50:00,
2013-06-29 17:55:00,66.6,35.8,29.98,NE,47,3.1,4.0,32,0.00,,---,0.00,VWS V13.01,2013-06-29 22:55:00,
2013-06-29 18:00:00,66.4,35.7,29.98,ENE,60,0.0,0.0,32,0.00,,---,0.00,VWS V13.01,2013-06-29 23:00:00,
2013-06-29 18:05:00,66.2,34.7,29.98,NNE,29,3.6,4.5,31,0.00,,---,0.00,VWS V13.01,2013-06-29 23:05:00,
2013-06-29 18:10:00,66.2,34.7,29.98,NE,43,0.0,0.0,31,0.00,,---,0.00,VWS V13.01,2013-06-29 23:10:00,
2013-06-29 18:15:00,66.0,33.7,29.98,ENE,57,0.0,4.5,30,0.00,,---,0.00,VWS V13.01,2013-06-29 23:15:00,
2013-06-29 18:20:00,65.8,34.4,29.98,NE,53,3.1,4.7,31,0.00,,---,0.00,VWS V13.01,2013-06-29 23:20:00,
2013-06-29 18:25:00,65.8,35.2,29.98,NE,56,0.0,3.1,32,0.00,,---,0.00,VWS V13.01,2013-06-29 23:25:00,
2013-06-29 18:30:00,65.8,35.2,29.98,North,1,0.0,0.0,32,0.00,,---,0.00,VWS V13.01,2013-06-29 23:30:00,
2013-06-29 18:35:00,65.7,35.0,29.98,NNE,14,0.0,0.0,32,0.00,,---,0.00,VWS V13.01,2013-06-29 23:35:00,
2013-06-29 18:40:00,65.7,34.2,29.98,NNE,27,2.7,4.0,31,0.00,,---,0.00,VWS V13.01,2013-06-29 23:40:00,
2013-06-29 18:45:00,65.5,34.9,29.98,NNE,27,0.0,0.0,32,0.00,,---,0.00,VWS V13.01,2013-06-29 23:45:00,
2013-06-29 18:50:00,65.5,34.1,29.98,NE,43,3.6,4.0,31,0.00,,---,0.00,VWS V13.01,2013-06-29 23:50:00,
2013-06-29 18:55:00,65.5,34.1,29.98,NE,43,0.0,0.0,31,0.00,,---,0.00,VWS V13.01,2013-06-29 23:55:00,
2013-06-29 19:00:00,65.3,33.9,29.98,NE,43,0.0,0.0,31,0.00,,---,0.00,VWS V13.01,2013-06-30 00:00:00,
2013-06-29 19:05:00,65.3,34.7,29.98,NE,43,0.0,0.0,32,0.00,,---,0.00,VWS V13.01,2013-06-30 00:05:00,
2013-06-29 19:10:00,65.1,35.3,29.98,NE,43,0.0,0.0,33,0.00,,---,0.00,VWS V13.01,2013-06-30 00:10:00,
2013-06-29 19:15:00,65.1,35.3,29.98,NE,43,0.0,0.0,33,0.00,,---,0.00,VWS V13.01,2013-06-30 00:15:00,
2013-06-29 19:20:00,65.1,35.3,29.98,NE,43,0.0,0.0,33,0.00,,---,0.00,VWS V13.01,2013-06-30 00:20:00,
2013-06-29 19:25:00,64.9,35.9,29.98,NE,43,0.0,0.0,34,0.00,,---,0.00,VWS V13.01,2013-06-30 00:25:00,
2013-06-29 19:30:00,64.8,36.5,29.98,NE,43,0.0,0.0,35,0.00,,---,0.00,VWS V13.01,2013-06-30 00:30:00,
2013-06-29 19:35:00,64.6,36.3,29.98,NE,43,0.0,0.0,35,0.00,,---,0.00,VWS V13.01,2013-06-30 00:35:00,
2013-06-29 19:40:00,64.4,36.9,29.98,NE,42,0.0,0.0,36,0.00,,---,0.00,VWS V13.01,2013-06-30 00:40:00,
2013-06-29 19:45:00,64.2,37.4,29.98,NE,42,0.0,0.0,37,0.00,,---,0.00,VWS V13.01,2013-06-30 00:45:00,
2013-06-29 19:50:00,64.0,37.9,29.98,NE,42,0.0,0.0,38,0.00,,---,0.00,VWS V13.01,2013-06-30 00:50:00,
2013-06-29 19:55:00,63.7,38.3,29.98,NE,42,0.0,0.0,39,0.00,,---,0.00,VWS V13.01,2013-06-30 00:55:00,
2013-06-29 20:00:00,63.3,41.1,29.98,NE,42,0.0,0.0,44,0.00,,---,0.00,VWS V13.01,2013-06-30 01:00:00,
2013-06-29 20:05:00,63.0,40.1,29.98,NE,42,0.0,0.0,43,0.00,,---,0.00,VWS V13.01,2013-06-30 01:05:00,
2013-06-29 20:10:00,62.8,40.6,29.98,NE,42,0.0,0.0,44,0.00,,---,0.00,VWS V13.01,2013-06-30 01:10:00,
2013-06-29 20:15:00,62.2,41.2,29.98,NE,42,0.0,0.0,46,0.00,,---,0.00,VWS V13.01,2013-06-30 01:15:00,
2013-06-29 20:20:00,61.9,40.9,29.98,NE,42,0.0,0.0,46,0.00,,---,0.00,VWS V13.01,2013-06-30 01:20:00,
2013-06-29 20:25:00,61.5,41.1,29.98,NE,42,0.0,0.0,47,0.00,,---,0.00,VWS V13.01,2013-06-30 01:25:00,
2013-06-29 20:30:00,61.2,41.3,29.98,NE,42,0.0,0.0,48,0.00,,---,0.00,VWS V13.01,2013-06-30 01:30:00,
2013-06-29 20:35:00,60.6,41.4,29.98,NE,42,0.0,0.0,49,0.00,,---,0.00,VWS V13.01,2013-06-30 01:35:00,
2013-06-29 20:40:00,60.3,42.1,29.98,NE,42,0.0,0.0,51,0.00,,---,0.00,VWS V13.01,2013-06-30 01:40:00,
2013-06-29 20:45:00,59.7,42.6,29.98,NE,42,0.0,0.0,53,0.00,,---,0.00,VWS V13.01,2013-06-30 01:45:00,
2013-06-29 20:50:00,59.2,42.1,29.98,NE,42,0.0,0.0,53,0.00,,---,0.00,VWS V13.01,2013-06-30 01:50:00,
2013-06-29 20:51:00,59.2,42.1,29.98,NE,41,0.0,0.0,53,0.00,,---,0.00,VWS V13.01,2013-06-30 01:51:00,
2013-06-29 20:56:00,58.8,41.2,29.98,NE,41,0.0,0.0,52,0.00,,---,0.00,VWS V13.01,2013-06-30 01:56:00,
2013-06-29 21:01:00,58.5,40.9,30.01,NE,41,0.0,0.0,52,0.00,,---,0.00,VWS V13.01,2013-06-30 02:01:00,
2013-06-29 21:07:00,58.3,41.2,30.01,NE,41,0.0,0.0,53,0.00,,---,0.00,VWS V13.01,2013-06-30 02:07:00,
2013-06-29 21:12:00,58.1,40.6,30.01,NE,41,0.0,0.0,52,0.00,,---,0.00,VWS V13.01,2013-06-30 02:12:00,
2013-06-29 21:17:00,57.9,40.4,30.01,NE,41,0.0,0.0,52,0.00,,---,0.00,VWS V13.01,2013-06-30 02:17:00,
2013-06-29 21:22:00,57.7,40.7,30.01,NE,41,0.0,0.0,53,0.00,,---,0.00,VWS V13.01,2013-06-30 02:22:00,
2013-06-29 21:27:00,57.6,40.6,30.01,NE,41,0.0,0.0,53,0.00,,---,0.00,VWS V13.01,2013-06-30 02:27:00,
2013-06-29 21:32:00,57.2,40.7,30.01,NE,41,0.0,0.0,54,0.00,,---,0.00,VWS V13.01,2013-06-30 02:32:00,
2013-06-29 21:37:00,57.0,42.0,30.01,NE,41,0.0,0.0,57,0.00,,---,0.00,VWS V13.01,2013-06-30 02:37:00,
2013-06-29 21:42:00,56.8,41.8,30.01,NE,41,0.0,0.0,57,0.00,,---,0.00,VWS V13.01,2013-06-30 02:42:00,
2013-06-29 21:47:00,56.7,41.6,30.01,NE,41,0.0,0.0,57,0.00,,---,0.00,VWS V13.01,2013-06-30 02:47:00,
2013-06-29 21:52:00,56.5,41.5,30.01,NE,41,0.0,0.0,57,0.00,,---,0.00,VWS V13.01,2013-06-30 02:52:00,
2013-06-29 21:57:00,56.3,40.4,30.01,NE,40,0.0,0.0,55,0.00,,---,0.00,VWS V13.01,2013-06-30 02:57:00,
2013-06-29 22:02:00,56.1,40.2,30.01,NE,40,0.0,0.0,55,0.00,,---,0.00,VWS V13.01,2013-06-30 03:02:00,
2013-06-29 22:07:00,55.9,39.5,30.01,NE,34,0.0,0.0,54,0.00,,---,0.00,VWS V13.01,2013-06-30 03:07:00,
2013-06-29 22:12:00,55.9,39.1,30.01,NNE,27,0.0,0.0,53,0.00,,---,0.00,VWS V13.01,2013-06-30 03:12:00,
2013-06-29 22:17:00,55.9,39.5,30.01,North,3,0.0,0.0,54,0.00,,---,0.00,VWS V13.01,2013-06-30 03:17:00,
2013-06-29 22:22:00,55.8,39.4,30.01,North,3,0.0,0.0,54,0.00,,---,0.00,VWS V13.01,2013-06-30 03:22:00,
2013-06-29 22:28:00,55.8,39.4,30.01,North,3,0.0,0.0,54,0.00,,---,0.00,VWS V13.01,2013-06-30 03:28:00,
2013-06-29 22:33:00,55.8,39.4,30.01,North,3,0.0,0.0,54,0.00,,---,0.00,VWS V13.01,2013-06-30 03:33:00,
2013-06-29 22:38:00,55.6,38.7,30.01,North,3,0.0,0.0,53,0.00,,---,0.00,VWS V13.01,2013-06-30 03:38:00,
2013-06-29 22:43:00,55.4,39.0,30.01,North,3,0.0,0.0,54,0.00,,---,0.00,VWS V13.01,2013-06-30 03:43:00,
2013-06-29 22:48:00,55.4,39.0,30.01,North,3,0.0,0.0,54,0.00,,---,0.00,VWS V13.01,2013-06-30 03:48:00,
2013-06-29 22:53:00,55.2,39.3,30.01,North,3,0.0,0.0,55,0.00,,---,0.00,VWS V13.01,2013-06-30 03:53:00,
2013-06-29 22:58:00,55.2,39.3,30.01,North,3,0.0,0.0,55,0.00,,---,0.00,VWS V13.01,2013-06-30 03:58:00,
2013-06-29 23:01:00,55.2,39.8,30.01,North,3,0.0,0.0,56,0.00,,---,0.00,VWS V13.01,2013-06-30 04:01:00,
2013-06-29 23:07:00,55.0,40.1,30.01,North,3,0.0,0.0,57,0.00,,---,0.00,VWS V13.01,2013-06-30 04:07:00,
2013-06-29 23:12:00,55.0,40.1,30.01,North,3,0.0,0.0,57,0.00,,---,0.00,VWS V13.01,2013-06-30 04:12:00,
2013-06-29 23:17:00,54.9,40.4,30.01,North,2,0.0,0.0,58,0.00,,---,0.00,VWS V13.01,2013-06-30 04:17:00,
2013-06-29 23:22:00,54.7,40.2,30.01,North,2,0.0,0.0,58,0.00,,---,0.00,VWS V13.01,2013-06-30 04:22:00,
2013-06-29 23:27:00,54.5,40.0,30.01,North,2,0.0,0.0,58,0.00,,---,0.00,VWS V13.01,2013-06-30 04:27:00,
2013-06-29 23:32:00,54.5,40.5,30.01,North,2,0.0,0.0,59,0.00,,---,0.00,VWS V13.01,2013-06-30 04:32:00,
2013-06-29 23:37:00,54.5,40.5,30.01,North,2,0.0,0.0,59,0.00,,---,0.00,VWS V13.01,2013-06-30 04:37:00,
2013-06-29 23:42:00,54.5,40.0,30.01,North,2,0.0,0.0,58,0.00,,---,0.00,VWS V13.01,2013-06-30 04:42:00,
2013-06-29 23:47:00,54.5,39.6,30.01,North,2,0.0,0.0,57,0.00,,---,0.00,VWS V13.01,2013-06-30 04:47:00,
2013-06-29 23:52:00,54.9,39.5,30.01,North,2,0.0,0.0,56,0.00,,---,0.00,VWS V13.01,2013-06-30 04:52:00,
2013-06-29 23:57:00,55.0,39.2,30.01,North,2,0.0,0.0,55,0.00,,---,0.00,VWS V13.01,2013-06-30 04:57:00,